createdAt,value
2023-08-31T00:02:23.156Z,17.99
2023-08-31T00:04:56.513Z,17.96
2023-08-31T00:07:29.239Z,17.95
2023-08-31T00:10:01.809Z,17.95
2023-08-31T00:12:34.422Z,17.95
2023-08-31T00:15:10.234Z,17.95
2023-08-31T00:17:44.051Z,17.96
2023-08-31T00:20:16.943Z,17.95
2023-08-31T00:22:49.545Z,17.97
2023-08-31T00:25:22.090Z,18.00
2023-08-31T00:27:55.988Z,18.04
2023-08-31T00:30:30.803Z,18.07
2023-08-31T00:33:03.415Z,18.11
2023-08-31T00:35:37.059Z,18.14
2023-08-31T00:38:09.737Z,18.18
2023-08-31T00:40:45.846Z,18.23
2023-08-31T00:43:19.175Z,18.26
2023-08-31T00:45:54.075Z,18.28
2023-08-31T00:48:27.687Z,18.28
2023-08-31T00:51:02.201Z,18.31
2023-08-31T00:53:36.198Z,18.33
2023-08-31T00:56:09.343Z,18.31
2023-08-31T00:58:42.046Z,18.28
2023-08-31T01:01:21.506Z,18.27
2023-08-31T01:04:07.435Z,18.27
2023-08-31T01:06:52.184Z,18.25
2023-08-31T01:09:38.062Z,18.21
2023-08-31T01:12:13.963Z,18.16
2023-08-31T01:14:50.268Z,18.12
2023-08-31T01:17:25.188Z,18.05
2023-08-31T01:19:58.994Z,17.98
2023-08-31T01:22:41.507Z,17.92
2023-08-31T01:25:14.900Z,17.89
2023-08-31T01:27:47.462Z,17.87
2023-08-31T01:30:21.860Z,17.84
2023-08-31T01:32:54.339Z,17.79
2023-08-31T01:35:28.056Z,17.73
2023-08-31T01:38:06.117Z,17.71
2023-08-31T01:40:42.500Z,17.67
2023-08-31T01:43:16.373Z,17.61
2023-08-31T01:45:50.438Z,17.56
2023-08-31T01:48:22.884Z,17.49
2023-08-31T01:50:55.308Z,17.46
2023-08-31T01:53:27.789Z,17.45
2023-08-31T01:56:00.333Z,17.43
2023-08-31T01:58:32.849Z,17.42
2023-08-31T02:01:05.237Z,17.42
2023-08-31T02:03:38.031Z,17.43
2023-08-31T02:06:10.874Z,17.45
2023-08-31T02:08:48.744Z,17.45
2023-08-31T02:11:24.049Z,17.49
2023-08-31T02:13:58.134Z,17.51
2023-08-31T02:16:30.613Z,17.52
2023-08-31T02:19:03.105Z,17.53
2023-08-31T02:21:35.826Z,17.52
2023-08-31T02:24:10.753Z,17.48
2023-08-31T02:26:47.202Z,17.49
2023-08-31T02:29:20.414Z,17.49
2023-08-31T02:31:52.837Z,17.48
2023-08-31T02:34:25.555Z,17.45
2023-08-31T02:36:58.417Z,17.41
2023-08-31T02:39:30.887Z,17.42
2023-08-31T02:42:03.432Z,17.41
2023-08-31T02:44:36.012Z,17.40
2023-08-31T02:47:08.652Z,17.42
2023-08-31T02:49:41.323Z,17.42
2023-08-31T02:52:13.893Z,17.41
2023-08-31T02:54:46.535Z,17.40
2023-08-31T02:57:21.066Z,17.37
2023-08-31T02:59:57.314Z,17.34
2023-08-31T03:02:30.042Z,17.32
2023-08-31T03:05:03.050Z,17.28
2023-08-31T03:07:35.972Z,17.25
2023-08-31T03:10:10.154Z,17.25
2023-08-31T03:12:42.588Z,17.26
2023-08-31T03:15:15.170Z,17.25
2023-08-31T03:17:47.961Z,17.26
2023-08-31T03:20:21.912Z,17.27
2023-08-31T03:22:55.012Z,17.26
2023-08-31T03:25:29.656Z,17.24
2023-08-31T03:28:00.538Z,17.21
2023-08-31T03:30:33.284Z,17.21
2023-08-31T03:33:06.980Z,17.22
2023-08-31T03:35:39.752Z,17.20
2023-08-31T03:38:12.231Z,17.18
2023-08-31T03:40:45.525Z,17.20
2023-08-31T03:43:17.985Z,17.23
2023-08-31T03:45:51.831Z,17.24
2023-08-31T03:48:24.920Z,17.24
2023-08-31T03:50:58.507Z,17.23
2023-08-31T03:53:30.965Z,17.21
2023-08-31T03:56:05.853Z,17.16
2023-08-31T03:58:38.792Z,17.16
2023-08-31T04:01:12.007Z,17.16
2023-08-31T04:03:45.757Z,17.15
2023-08-31T04:06:19.174Z,17.16
2023-08-31T04:08:52.581Z,17.16
2023-08-31T04:11:27.307Z,17.15
2023-08-31T04:14:00.040Z,17.14
2023-08-31T04:16:34.366Z,17.12
2023-08-31T04:19:07.159Z,17.12
2023-08-31T04:21:39.934Z,17.09
2023-08-31T04:24:12.747Z,17.05
2023-08-31T04:26:49.257Z,17.05
2023-08-31T04:29:21.833Z,17.02
2023-08-31T04:31:55.046Z,17.01
2023-08-31T04:34:28.291Z,17.00
2023-08-31T04:37:00.800Z,16.98
2023-08-31T04:39:33.213Z,17.00
2023-08-31T04:42:06.396Z,17.05
2023-08-31T04:44:39.540Z,17.09
2023-08-31T04:47:12.882Z,17.09
2023-08-31T04:49:45.608Z,17.09
2023-08-31T04:52:18.316Z,17.09
2023-08-31T04:54:50.647Z,17.12
2023-08-31T04:57:23.146Z,17.11
2023-08-31T04:59:55.736Z,17.12
2023-08-31T05:02:28.270Z,17.16
2023-08-31T05:05:00.918Z,17.15
2023-08-31T05:07:33.616Z,17.14
2023-08-31T05:10:06.666Z,17.14
2023-08-31T05:12:39.654Z,17.12
2023-08-31T05:15:13.951Z,17.12
2023-08-31T05:17:46.408Z,17.11
2023-08-31T05:20:19.096Z,17.10
2023-08-31T05:22:51.547Z,17.10
2023-08-31T05:25:24.604Z,17.10
2023-08-31T05:27:58.894Z,17.10
2023-08-31T05:30:31.309Z,17.14
2023-08-31T05:33:04.786Z,17.14
2023-08-31T05:35:39.933Z,17.15
2023-08-31T05:38:13.543Z,17.20
2023-08-31T05:40:47.400Z,17.20
2023-08-31T05:43:20.327Z,17.19
2023-08-31T05:45:53.061Z,17.19
2023-08-31T05:48:25.754Z,17.22
2023-08-31T05:50:58.830Z,17.24
2023-08-31T05:53:31.196Z,17.25
2023-08-31T05:56:06.172Z,17.26
2023-08-31T05:58:40.168Z,17.29
2023-08-31T06:01:12.602Z,17.33
2023-08-31T06:03:45.044Z,17.35
2023-08-31T06:06:17.994Z,17.39
2023-08-31T06:08:50.434Z,17.40
2023-08-31T06:11:23.442Z,17.40
2023-08-31T06:13:56.081Z,17.42
2023-08-31T06:16:29.523Z,17.42
2023-08-31T06:19:02.250Z,17.43
2023-08-31T06:21:34.985Z,17.43
2023-08-31T06:24:11.243Z,17.46
2023-08-31T06:26:43.828Z,17.50
2023-08-31T06:29:16.621Z,17.54
2023-08-31T06:31:49.046Z,17.53
2023-08-31T06:34:21.541Z,17.50
2023-08-31T06:36:54.354Z,17.47
2023-08-31T06:39:27.181Z,17.49
2023-08-31T06:41:59.932Z,17.50
2023-08-31T06:44:35.849Z,17.52
2023-08-31T06:47:08.434Z,17.53
2023-08-31T06:49:41.154Z,17.53
2023-08-31T06:52:29.461Z,17.53
2023-08-31T06:55:04.424Z,17.59
2023-08-31T06:57:38.090Z,17.63
2023-08-31T07:00:13.441Z,17.64
2023-08-31T07:02:46.419Z,17.72
2023-08-31T07:05:24.290Z,17.81
2023-08-31T07:07:57.691Z,17.90
2023-08-31T07:10:30.780Z,18.01
2023-08-31T07:13:03.377Z,18.12
2023-08-31T07:15:36.167Z,18.26
2023-08-31T07:18:08.858Z,18.43
2023-08-31T07:20:41.694Z,18.58
2023-08-31T07:23:15.191Z,18.70
2023-08-31T07:25:48.180Z,18.79
2023-08-31T07:28:20.661Z,18.83
2023-08-31T07:31:02.389Z,18.95
2023-08-31T07:33:36.399Z,19.01
2023-08-31T07:36:09.795Z,19.01
2023-08-31T07:38:42.235Z,19.04
2023-08-31T07:41:14.960Z,19.04
2023-08-31T07:44:02.650Z,19.04
2023-08-31T07:46:37.264Z,18.99
2023-08-31T07:49:10.018Z,19.00
2023-08-31T07:51:42.501Z,19.05
2023-08-31T07:54:20.928Z,19.04
2023-08-31T07:56:53.436Z,19.00
2023-08-31T07:59:26.524Z,18.95
2023-08-31T08:01:59.061Z,18.96
2023-08-31T08:04:32.380Z,19.02
2023-08-31T08:07:05.212Z,19.08
2023-08-31T08:09:38.040Z,19.12
2023-08-31T08:12:12.535Z,19.15
2023-08-31T08:14:45.095Z,19.20
2023-08-31T08:17:17.558Z,19.27
2023-08-31T08:19:50.221Z,19.35
2023-08-31T08:22:22.577Z,19.44
2023-08-31T08:24:55.177Z,19.61
2023-08-31T08:27:27.913Z,19.80
2023-08-31T08:30:00.387Z,19.93
2023-08-31T08:32:35.171Z,20.03
2023-08-31T08:35:08.970Z,20.17
2023-08-31T08:37:41.697Z,20.38
2023-08-31T08:40:14.449Z,20.61
2023-08-31T08:42:49.594Z,20.81
2023-08-31T08:45:25.656Z,20.90
2023-08-31T08:47:59.977Z,20.86
2023-08-31T08:50:35.222Z,20.80
2023-08-31T08:53:08.554Z,20.74
2023-08-31T08:55:42.987Z,20.69
2023-08-31T08:58:15.403Z,20.68
2023-08-31T09:00:48.843Z,20.74
2023-08-31T09:03:21.225Z,20.84
2023-08-31T09:05:53.824Z,20.88
2023-08-31T09:08:31.793Z,20.97
2023-08-31T09:11:04.407Z,21.08
2023-08-31T09:13:36.834Z,21.12
2023-08-31T09:16:09.316Z,21.13
2023-08-31T09:18:41.816Z,21.06
2023-08-31T09:21:15.288Z,21.04
2023-08-31T09:23:58.353Z,21.01
2023-08-31T09:26:30.808Z,20.97
2023-08-31T09:29:03.764Z,20.92
2023-08-31T09:31:36.197Z,20.87
2023-08-31T09:34:08.904Z,20.80
2023-08-31T09:36:41.899Z,20.75
2023-08-31T09:39:15.256Z,20.73
2023-08-31T09:41:58.098Z,20.67
2023-08-31T09:44:30.608Z,20.57
2023-08-31T09:47:04.701Z,20.51
2023-08-31T09:49:39.156Z,20.49
2023-08-31T09:52:13.674Z,20.47
2023-08-31T09:54:45.188Z,20.46
2023-08-31T09:57:22.616Z,20.48
2023-08-31T10:00:03.680Z,20.52
2023-08-31T10:02:38.990Z,20.56
2023-08-31T10:05:14.017Z,20.63
2023-08-31T10:07:47.940Z,20.82
2023-08-31T10:10:21.756Z,21.01
2023-08-31T10:12:55.506Z,21.18
2023-08-31T10:15:34.358Z,21.32
2023-08-31T10:18:08.692Z,21.40
2023-08-31T10:20:43.919Z,21.41
2023-08-31T10:23:17.186Z,21.49
2023-08-31T10:26:06.744Z,21.63
2023-08-31T10:28:46.576Z,21.80
2023-08-31T10:31:21.715Z,21.94
2023-08-31T10:34:01.562Z,21.98
2023-08-31T10:36:41.642Z,22.00
2023-08-31T10:39:18.569Z,22.17
2023-08-31T10:41:58.309Z,22.27
2023-08-31T10:44:33.271Z,22.37
2023-08-31T10:47:07.784Z,22.38
2023-08-31T10:49:40.220Z,22.33
2023-08-31T10:52:36.868Z,22.27
2023-08-31T10:55:14.496Z,22.20
2023-08-31T10:57:47.026Z,22.23
2023-08-31T11:00:54.779Z,22.31
2023-08-31T11:03:27.262Z,22.41
2023-08-31T11:06:00.960Z,22.45
2023-08-31T11:08:33.400Z,22.45
2023-08-31T11:11:06.291Z,22.42
2023-08-31T11:13:39.371Z,22.39
2023-08-31T11:16:11.825Z,22.39
2023-08-31T11:18:44.282Z,22.43
2023-08-31T11:21:17.744Z,22.49
2023-08-31T11:23:51.317Z,22.65
2023-08-31T11:26:23.803Z,22.79
2023-08-31T11:28:57.944Z,22.89
2023-08-31T11:31:31.023Z,23.00
2023-08-31T11:34:03.484Z,23.13
2023-08-31T11:36:36.898Z,23.20
2023-08-31T11:39:10.945Z,23.22
2023-08-31T11:41:44.454Z,23.20
2023-08-31T11:44:18.117Z,23.13
2023-08-31T11:46:51.964Z,22.97
2023-08-31T11:49:25.008Z,22.80
2023-08-31T11:51:58.338Z,22.67
2023-08-31T11:54:31.337Z,22.52
2023-08-31T11:57:04.808Z,22.39
2023-08-31T11:59:38.688Z,22.29
2023-08-31T12:02:11.803Z,22.14
2023-08-31T12:04:47.694Z,21.97
2023-08-31T12:07:21.774Z,21.81
2023-08-31T12:09:54.211Z,21.66
2023-08-31T12:12:27.773Z,21.52
2023-08-31T12:15:04.986Z,21.41
2023-08-31T12:17:41.287Z,21.32
2023-08-31T12:20:15.868Z,21.25
2023-08-31T12:22:46.763Z,21.24
2023-08-31T12:25:25.534Z,21.25
2023-08-31T12:27:58.569Z,21.25
2023-08-31T12:30:30.934Z,21.25
2023-08-31T12:33:03.440Z,21.26
2023-08-31T12:35:35.920Z,21.31
2023-08-31T12:38:08.407Z,21.33
2023-08-31T12:40:41.187Z,21.35
2023-08-31T12:43:14.255Z,21.35
2023-08-31T12:45:47.104Z,21.29
2023-08-31T12:48:19.588Z,21.20
2023-08-31T12:50:51.971Z,20.99
2023-08-31T12:53:24.865Z,20.69
2023-08-31T12:55:57.776Z,20.46
2023-08-31T12:58:30.172Z,20.32
2023-08-31T13:01:03.490Z,20.25
2023-08-31T13:03:35.979Z,20.18
2023-08-31T13:06:08.886Z,20.12
2023-08-31T13:08:41.707Z,20.09
2023-08-31T13:11:14.924Z,20.01
2023-08-31T13:13:47.272Z,19.94
2023-08-31T13:16:20.284Z,19.89
2023-08-31T13:18:53.418Z,19.88
2023-08-31T13:21:26.536Z,19.88
2023-08-31T13:23:59.249Z,19.96
2023-08-31T13:26:31.698Z,20.06
2023-08-31T13:29:05.956Z,20.16
2023-08-31T13:31:38.962Z,20.26
2023-08-31T13:34:11.708Z,20.37
2023-08-31T13:36:44.107Z,20.53
2023-08-31T13:39:17.580Z,20.65
2023-08-31T13:41:49.979Z,20.74
2023-08-31T13:44:23.632Z,20.78
2023-08-31T13:46:56.099Z,20.85
2023-08-31T13:49:28.481Z,20.89
2023-08-31T13:52:01.221Z,20.86
2023-08-31T13:54:33.997Z,20.77
2023-08-31T13:57:06.877Z,20.66
2023-08-31T13:59:39.270Z,20.53
2023-08-31T14:02:12.057Z,20.43
2023-08-31T14:04:45.257Z,20.33
2023-08-31T14:07:18.119Z,20.25
2023-08-31T14:09:51.798Z,20.23
2023-08-31T14:12:25.833Z,20.23
2023-08-31T14:14:58.916Z,20.26
2023-08-31T14:17:31.279Z,20.29
2023-08-31T14:20:08.980Z,20.27
2023-08-31T14:22:44.214Z,20.24
2023-08-31T14:25:17.269Z,20.20
2023-08-31T14:27:50.628Z,20.17
2023-08-31T14:30:23.306Z,20.15
2023-08-31T14:32:55.950Z,20.12
2023-08-31T14:35:29.571Z,20.06
2023-08-31T14:38:01.984Z,20.05
2023-08-31T14:40:35.456Z,20.02
2023-08-31T14:43:08.807Z,19.94
2023-08-31T14:45:42.505Z,19.87
2023-08-31T14:48:15.131Z,19.81
2023-08-31T14:50:47.892Z,19.75
2023-08-31T14:53:20.652Z,19.71
2023-08-31T14:55:53.930Z,19.68
2023-08-31T14:58:26.309Z,19.66
2023-08-31T15:01:00.807Z,19.66
2023-08-31T15:03:31.997Z,19.66
2023-08-31T15:06:04.537Z,19.66
2023-08-31T15:08:42.100Z,19.66
2023-08-31T15:11:16.334Z,19.67
2023-08-31T15:13:48.926Z,19.66
2023-08-31T15:16:21.563Z,19.67
2023-08-31T15:18:54.236Z,19.66
2023-08-31T15:21:26.855Z,19.65
2023-08-31T15:23:59.298Z,19.63
2023-08-31T15:26:31.781Z,19.59
2023-08-31T15:29:05.319Z,19.58
2023-08-31T15:31:37.829Z,19.57
2023-08-31T15:34:11.666Z,19.56
2023-08-31T15:36:44.149Z,19.57
2023-08-31T15:39:16.636Z,19.59
2023-08-31T15:41:49.317Z,19.60
2023-08-31T15:44:22.058Z,19.63
2023-08-31T15:46:55.006Z,19.64
2023-08-31T15:49:27.758Z,19.66
2023-08-31T15:52:00.966Z,19.65
2023-08-31T15:54:33.774Z,19.64
2023-08-31T15:57:07.984Z,19.64
2023-08-31T15:59:41.105Z,19.65
2023-08-31T16:02:16.790Z,19.67
2023-08-31T16:04:49.764Z,19.66
2023-08-31T16:07:22.154Z,19.61
2023-08-31T16:09:55.309Z,19.55
2023-08-31T16:12:27.919Z,19.54
2023-08-31T16:15:00.626Z,19.53
2023-08-31T16:17:33.278Z,19.48
2023-08-31T16:20:06.548Z,19.42
2023-08-31T16:22:39.438Z,19.36
2023-08-31T16:25:14.060Z,19.30
2023-08-31T16:27:44.865Z,19.24
2023-08-31T16:30:18.063Z,19.20
2023-08-31T16:32:50.471Z,19.16
2023-08-31T16:35:22.998Z,19.14
2023-08-31T16:37:55.400Z,19.11
2023-08-31T16:40:28.141Z,19.10
2023-08-31T16:43:00.601Z,19.10
2023-08-31T16:45:32.994Z,19.11
2023-08-31T16:48:06.188Z,19.10
2023-08-31T16:50:39.526Z,19.08
2023-08-31T16:53:11.880Z,19.06
2023-08-31T16:55:44.343Z,19.04
2023-08-31T16:58:17.290Z,19.02
2023-08-31T17:00:50.076Z,18.98
2023-08-31T17:03:22.536Z,18.95
2023-08-31T17:05:56.461Z,18.92
2023-08-31T17:08:28.782Z,18.87
2023-08-31T17:11:05.735Z,18.84
2023-08-31T17:13:38.160Z,18.79
2023-08-31T17:16:14.108Z,18.72
2023-08-31T17:18:46.608Z,18.69
2023-08-31T17:21:19.451Z,18.66
2023-08-31T17:23:52.679Z,18.62
2023-08-31T17:26:33.266Z,18.58
2023-08-31T17:29:09.140Z,18.53
2023-08-31T17:31:43.366Z,18.49
2023-08-31T17:34:20.838Z,18.43
2023-08-31T17:36:56.106Z,18.38
2023-08-31T17:39:37.116Z,18.34
2023-08-31T17:42:12.183Z,18.32
2023-08-31T17:44:46.522Z,18.29
2023-08-31T17:47:20.791Z,18.25
2023-08-31T17:49:54.115Z,18.24
2023-08-31T17:52:26.995Z,18.23
2023-08-31T17:54:59.530Z,18.24
2023-08-31T17:57:33.322Z,18.24
2023-08-31T18:00:09.839Z,18.21
2023-08-31T18:02:43.938Z,18.20
2023-08-31T18:05:22.593Z,18.18
2023-08-31T18:08:05.295Z,18.17
2023-08-31T18:10:49.953Z,18.12
2023-08-31T18:13:28.625Z,18.08
2023-08-31T18:16:04.875Z,18.05
2023-08-31T18:18:46.289Z,18.02
2023-08-31T18:21:27.931Z,18.01
2023-08-31T18:24:04.279Z,18.03
2023-08-31T18:26:40.155Z,18.01
2023-08-31T18:29:14.363Z,17.99
2023-08-31T18:31:47.461Z,17.97
2023-08-31T18:34:20.518Z,17.95
2023-08-31T18:36:52.860Z,17.94
2023-08-31T18:39:26.584Z,17.90
2023-08-31T18:41:59.039Z,17.84
2023-08-31T18:44:31.595Z,17.80
2023-08-31T18:47:04.143Z,17.78
2023-08-31T18:49:36.633Z,17.74
2023-08-31T18:52:09.478Z,17.70
2023-08-31T18:54:42.164Z,17.68
2023-08-31T18:57:14.932Z,17.64
2023-08-31T18:59:48.016Z,17.62
2023-08-31T19:02:22.418Z,17.59
2023-08-31T19:04:55.681Z,17.56
2023-08-31T19:07:28.349Z,17.51
2023-08-31T19:10:08.219Z,17.46
2023-08-31T19:12:42.768Z,17.41
2023-08-31T19:15:15.320Z,17.36
2023-08-31T19:17:48.217Z,17.31
2023-08-31T19:20:20.989Z,17.27
2023-08-31T19:22:53.558Z,17.23
2023-08-31T19:25:30.545Z,17.18
2023-08-31T19:28:07.624Z,17.12
2023-08-31T19:30:40.186Z,17.07
2023-08-31T19:33:12.506Z,17.02
2023-08-31T19:35:58.789Z,16.95
2023-08-31T19:38:32.090Z,16.90
2023-08-31T19:41:04.929Z,16.87
2023-08-31T19:43:37.729Z,16.85
2023-08-31T19:46:14.278Z,16.79
2023-08-31T19:48:47.364Z,16.75
2023-08-31T19:51:19.754Z,16.75
2023-08-31T19:53:52.158Z,16.76
2023-08-31T19:56:24.625Z,16.77
2023-08-31T19:59:03.099Z,16.76
2023-08-31T20:01:36.140Z,16.75
2023-08-31T20:04:10.516Z,16.72
2023-08-31T20:06:42.913Z,16.69
2023-08-31T20:09:16.021Z,16.69
2023-08-31T20:11:48.382Z,16.70
2023-08-31T20:14:20.746Z,16.70
2023-08-31T20:16:53.495Z,16.67
2023-08-31T20:19:26.193Z,16.63
2023-08-31T20:22:00.510Z,16.60
2023-08-31T20:24:33.421Z,16.60
2023-08-31T20:27:06.897Z,16.60
2023-08-31T20:29:39.618Z,16.56
2023-08-31T20:32:11.987Z,16.55
2023-08-31T20:34:47.310Z,16.52
2023-08-31T20:37:20.361Z,16.51
2023-08-31T20:39:52.810Z,16.50
2023-08-31T20:42:25.683Z,16.46
2023-08-31T20:44:59.270Z,16.43
2023-08-31T20:47:31.954Z,16.39
2023-08-31T20:50:05.777Z,16.36
2023-08-31T20:52:38.131Z,16.32
2023-08-31T20:55:11.778Z,16.27
2023-08-31T20:57:44.578Z,16.24
2023-08-31T21:00:17.692Z,16.22
2023-08-31T21:02:51.162Z,16.16
2023-08-31T21:05:24.248Z,16.10
2023-08-31T21:07:57.029Z,16.06
2023-08-31T21:10:29.681Z,16.02
2023-08-31T21:13:02.800Z,16.03
2023-08-31T21:15:36.490Z,16.02
2023-08-31T21:18:10.684Z,15.98
2023-08-31T21:20:43.046Z,15.96
2023-08-31T21:23:15.652Z,15.94
2023-08-31T21:25:48.576Z,15.91
2023-08-31T21:28:21.547Z,15.93
2023-08-31T21:30:54.815Z,15.93
2023-08-31T21:33:27.255Z,15.91
2023-08-31T21:36:01.311Z,15.92
2023-08-31T21:38:33.794Z,15.94
2023-08-31T21:41:07.302Z,15.95
2023-08-31T21:43:39.956Z,15.95
2023-08-31T21:46:12.411Z,15.94
2023-08-31T21:48:46.727Z,15.92
2023-08-31T21:51:19.037Z,15.90
2023-08-31T21:53:51.730Z,15.90
2023-08-31T21:56:24.620Z,15.89
2023-08-31T21:58:56.907Z,15.88
2023-08-31T22:01:29.298Z,15.86
2023-08-31T22:04:02.536Z,15.86
2023-08-31T22:06:35.381Z,15.85
2023-08-31T22:09:08.211Z,15.83
2023-08-31T22:11:40.522Z,15.77
2023-08-31T22:14:13.817Z,15.74
2023-08-31T22:16:46.569Z,15.70
2023-08-31T22:19:19.027Z,15.66
2023-08-31T22:21:51.661Z,15.62
2023-08-31T22:24:24.473Z,15.61
2023-08-31T22:26:56.959Z,15.57
2023-08-31T22:29:29.330Z,15.55
2023-08-31T22:32:01.874Z,15.52
2023-08-31T22:34:34.350Z,15.51
2023-08-31T22:37:07.050Z,15.51
2023-08-31T22:39:40.136Z,15.52
2023-08-31T22:42:13.404Z,15.50
2023-08-31T22:44:46.030Z,15.48
2023-08-31T22:47:19.107Z,15.46
2023-08-31T22:49:53.707Z,15.42
2023-08-31T22:52:26.773Z,15.40
2023-08-31T22:54:59.686Z,15.37
2023-08-31T22:57:32.996Z,15.35
2023-08-31T23:00:08.067Z,15.34
2023-08-31T23:02:40.888Z,15.32
2023-08-31T23:05:13.484Z,15.31
2023-08-31T23:07:46.259Z,15.28
2023-08-31T23:10:26.917Z,15.25
2023-08-31T23:13:04.611Z,15.22
2023-08-31T23:15:39.994Z,15.23
2023-08-31T23:18:13.484Z,15.21
2023-08-31T23:20:46.574Z,15.18
2023-08-31T23:23:19.670Z,15.16
2023-08-31T23:25:52.339Z,15.14
2023-08-31T23:28:24.876Z,15.14
2023-08-31T23:30:57.312Z,15.12
2023-08-31T23:33:29.915Z,15.11
2023-08-31T23:36:02.875Z,15.12
2023-08-31T23:38:35.338Z,15.12
2023-08-31T23:41:07.962Z,15.13
2023-08-31T23:43:40.944Z,15.14
2023-08-31T23:46:13.425Z,15.14
2023-08-31T23:48:46.053Z,15.16
2023-08-31T23:51:18.373Z,15.15
2023-08-31T23:53:50.814Z,15.14
2023-08-31T23:56:24.204Z,15.12
2023-08-31T23:58:57.174Z,15.11
